sensor_id;sensor_type;location;lat;lon;timestamp;pressure;altitude;pressure_sealevel;temperature;humidity
75188;BME280;63762;51.334;22.108;2023-04-16T00:02:30;101525.04;;;10.31;74.60
75188;BME280;63762;51.334;22.108;2023-04-16T00:12:37;101534.98;;;10.16;74.18
75188;BME280;63762;51.334;22.108;2023-04-16T00:22:44;101541.23;;;10.03;73.30
75188;BME280;63762;51.334;22.108;2023-04-16T00:32:51;101544.52;;;9.80;73.04
75188;BME280;63762;51.334;22.108;2023-04-16T00:42:59;101550.46;;;9.57;73.68
75188;BME280;63762;51.334;22.108;2023-04-16T00:53:06;101556.02;;;9.40;74.72
75188;BME280;63762;51.334;22.108;2023-04-16T01:03:13;101548.80;;;9.26;75.40
75188;BME280;63762;51.334;22.108;2023-04-16T01:13:20;101568.92;;;9.19;75.38
75188;BME280;63762;51.334;22.108;2023-04-16T01:23:27;101582.63;;;9.14;76.34
75188;BME280;63762;51.334;22.108;2023-04-16T01:33:34;101576.62;;;9.25;77.83
75188;BME280;63762;51.334;22.108;2023-04-16T01:43:42;101571.15;;;9.27;78.34
75188;BME280;63762;51.334;22.108;2023-04-16T01:53:49;101574.06;;;9.38;78.57
75188;BME280;63762;51.334;22.108;2023-04-16T02:03:56;101581.35;;;9.50;78.73
75188;BME280;63762;51.334;22.108;2023-04-16T02:14:03;101590.09;;;9.53;78.64
75188;BME280;63762;51.334;22.108;2023-04-16T02:24:10;101586.16;;;9.59;78.31
75188;BME280;63762;51.334;22.108;2023-04-16T02:34:17;101599.22;;;9.65;77.92
75188;BME280;63762;51.334;22.108;2023-04-16T02:44:25;101599.22;;;9.65;77.42
75188;BME280;63762;51.334;22.108;2023-04-16T02:54:31;101598.44;;;9.63;77.44
75188;BME280;63762;51.334;22.108;2023-04-16T03:04:38;101596.44;;;9.66;76.80
75188;BME280;63762;51.334;22.108;2023-04-16T03:14:45;101611.68;;;9.66;76.49
75188;BME280;63762;51.334;22.108;2023-04-16T03:24:53;101616.59;;;9.59;76.74
75188;BME280;63762;51.334;22.108;2023-04-16T03:35:00;101624.56;;;9.61;76.74
75188;BME280;63762;51.334;22.108;2023-04-16T03:45:08;101633.36;;;9.63;76.56
75188;BME280;63762;51.334;22.108;2023-04-16T03:55:14;101646.89;;;9.61;76.29
75188;BME280;63762;51.334;22.108;2023-04-16T04:05:21;101654.11;;;9.61;76.58
75188;BME280;63762;51.334;22.108;2023-04-16T04:15:28;101650.54;;;9.60;76.28
75188;BME280;63762;51.334;22.108;2023-04-16T04:25:35;101674.63;;;9.62;76.22
75188;BME280;63762;51.334;22.108;2023-04-16T04:35:42;101664.49;;;9.67;76.27
75188;BME280;63762;51.334;22.108;2023-04-16T04:45:50;101676.68;;;9.72;76.10
75188;BME280;63762;51.334;22.108;2023-04-16T04:55:57;101693.55;;;9.74;75.86
75188;BME280;63762;51.334;22.108;2023-04-16T05:06:05;101692.80;;;9.72;75.75
75188;BME280;63762;51.334;22.108;2023-04-16T05:16:11;101713.92;;;9.78;75.97
75188;BME280;63762;51.334;22.108;2023-04-16T05:26:18;101717.09;;;9.85;75.97
75188;BME280;63762;51.334;22.108;2023-04-16T05:36:25;101715.38;;;9.98;75.23
75188;BME280;63762;51.334;22.108;2023-04-16T05:46:33;101719.30;;;10.22;75.08
75188;BME280;63762;51.334;22.108;2023-04-16T05:56:40;101731.85;;;10.35;74.00
75188;BME280;63762;51.334;22.108;2023-04-16T06:06:47;101761.73;;;10.31;73.43
75188;BME280;63762;51.334;22.108;2023-04-16T06:16:54;101766.92;;;10.34;73.20
75188;BME280;63762;51.334;22.108;2023-04-16T06:27:01;101775.08;;;10.74;72.80
75188;BME280;63762;51.334;22.108;2023-04-16T06:37:08;101783.05;;;10.90;71.93
75188;BME280;63762;51.334;22.108;2023-04-16T06:47:16;101779.23;;;10.80;71.45
75188;BME280;63762;51.334;22.108;2023-04-16T06:57:22;101790.16;;;10.91;70.74
75188;BME280;63762;51.334;22.108;2023-04-16T07:07:29;101789.97;;;11.34;70.25
75188;BME280;63762;51.334;22.108;2023-04-16T07:17:37;101789.65;;;11.92;68.96
75188;BME280;63762;51.334;22.108;2023-04-16T07:27:44;101809.48;;;12.55;68.15
75188;BME280;63762;51.334;22.108;2023-04-16T07:37:51;101803.71;;;12.97;65.80
75188;BME280;63762;51.334;22.108;2023-04-16T07:47:59;101809.82;;;13.24;64.89
75188;BME280;63762;51.334;22.108;2023-04-16T07:58:05;101823.34;;;13.61;63.01
75188;BME280;63762;51.334;22.108;2023-04-16T08:08:12;101817.50;;;14.01;63.01
75188;BME280;63762;51.334;22.108;2023-04-16T08:18:19;101816.57;;;14.48;60.85
75188;BME280;63762;51.334;22.108;2023-04-16T08:28:26;101827.41;;;14.59;59.01
75188;BME280;63762;51.334;22.108;2023-04-16T08:38:34;101825.23;;;14.97;57.67
75188;BME280;63762;51.334;22.108;2023-04-16T08:48:42;101834.20;;;15.41;57.37
75188;BME280;63762;51.334;22.108;2023-04-16T08:58:49;101845.59;;;15.78;55.00
75188;BME280;63762;51.334;22.108;2023-04-16T09:08:56;101857.62;;;15.42;55.97
75188;BME280;63762;51.334;22.108;2023-04-16T09:19:02;101854.28;;;16.24;57.35
75188;BME280;63762;51.334;22.108;2023-04-16T09:29:09;101859.90;;;16.64;54.70
75188;BME280;63762;51.334;22.108;2023-04-16T09:39:21;101870.87;;;17.03;53.45
75188;BME280;63762;51.334;22.108;2023-04-16T09:49:24;101874.01;;;16.78;52.91
75188;BME280;63762;51.334;22.108;2023-04-16T09:59:31;101877.87;;;17.36;52.02
75188;BME280;63762;51.334;22.108;2023-04-16T10:09:38;101881.38;;;17.17;52.98
75188;BME280;63762;51.334;22.108;2023-04-16T10:19:45;101875.28;;;17.34;54.48
75188;BME280;63762;51.334;22.108;2023-04-16T10:29:52;101875.23;;;18.42;51.44
75188;BME280;63762;51.334;22.108;2023-04-16T10:39:59;101873.08;;;18.65;50.61
75188;BME280;63762;51.334;22.108;2023-04-16T10:50:14;101876.25;;;19.16;48.69
75188;BME280;63762;51.334;22.108;2023-04-16T11:00:22;101864.58;;;19.33;43.63
75188;BME280;63762;51.334;22.108;2023-04-16T11:10:23;101871.92;;;18.20;46.51
75188;BME280;63762;51.334;22.108;2023-04-16T11:20:28;101891.07;;;17.70;49.16
75188;BME280;63762;51.334;22.108;2023-04-16T11:33:43;101889.50;;;17.78;50.10
75188;BME280;63762;51.334;22.108;2023-04-16T11:43:50;101880.92;;;17.92;49.05
75188;BME280;63762;51.334;22.108;2023-04-16T11:53:57;101875.95;;;18.54;49.71
75188;BME280;63762;51.334;22.108;2023-04-16T12:04:04;101878.96;;;18.32;48.32
75188;BME280;63762;51.334;22.108;2023-04-16T12:14:12;101890.14;;;18.10;47.84
75188;BME280;63762;51.334;22.108;2023-04-16T12:24:18;101879.91;;;17.83;48.12
75188;BME280;63762;51.334;22.108;2023-04-16T12:34:26;101873.80;;;18.29;48.54
75188;BME280;63762;51.334;22.108;2023-04-16T12:44:32;101871.25;;;18.46;46.69
75188;BME280;63762;51.334;22.108;2023-04-16T12:54:39;101865.95;;;18.45;46.08
75188;BME280;63762;51.334;22.108;2023-04-16T13:04:47;101869.48;;;18.26;48.78
75188;BME280;63762;51.334;22.108;2023-04-16T13:14:54;101864.33;;;18.33;51.44
75188;BME280;63762;51.334;22.108;2023-04-16T13:25:01;101864.92;;;18.46;47.52
75188;BME280;63762;51.334;22.108;2023-04-16T13:35:09;101868.61;;;18.64;48.64
75188;BME280;63762;51.334;22.108;2023-04-16T13:45:15;101864.47;;;18.69;51.14
75188;BME280;63762;51.334;22.108;2023-04-16T13:55:22;101866.62;;;18.66;51.92
75188;BME280;63762;51.334;22.108;2023-04-16T14:05:29;101863.99;;;18.83;53.48
75188;BME280;63762;51.334;22.108;2023-04-16T14:15:36;101859.36;;;19.03;51.90
75188;BME280;63762;51.334;22.108;2023-04-16T14:25:44;101856.40;;;18.77;51.93
75188;BME280;63762;51.334;22.108;2023-04-16T14:35:51;101874.52;;;18.50;51.49
75188;BME280;63762;51.334;22.108;2023-04-16T14:45:58;101869.49;;;18.17;52.67
75188;BME280;63762;51.334;22.108;2023-04-16T14:56:05;101882.10;;;18.08;52.79
75188;BME280;63762;51.334;22.108;2023-04-16T15:06:12;101875.48;;;18.20;51.88
75188;BME280;63762;51.334;22.108;2023-04-16T15:16:19;101879.27;;;18.38;50.12
75188;BME280;63762;51.334;22.108;2023-04-16T15:26:26;101878.39;;;18.38;51.58
75188;BME280;63762;51.334;22.108;2023-04-16T15:36:34;101894.99;;;18.06;52.75
75188;BME280;63762;51.334;22.108;2023-04-16T15:46:40;101888.26;;;18.01;52.48
75188;BME280;63762;51.334;22.108;2023-04-16T15:56:48;101896.84;;;17.87;52.34
75188;BME280;63762;51.334;22.108;2023-04-16T16:06:55;101894.77;;;17.69;52.33
75188;BME280;63762;51.334;22.108;2023-04-16T16:17:02;101905.88;;;18.06;52.37
75188;BME280;63762;51.334;22.108;2023-04-16T16:27:09;101903.18;;;18.73;50.99
75188;BME280;63762;51.334;22.108;2023-04-16T16:37:17;101918.85;;;18.71;51.13
75188;BME280;63762;51.334;22.108;2023-04-16T16:47:23;101921.27;;;18.36;51.04
75188;BME280;63762;51.334;22.108;2023-04-16T16:57:30;101933.34;;;17.74;52.33
75188;BME280;63762;51.334;22.108;2023-04-16T17:07:38;101937.05;;;17.13;53.78
75188;BME280;63762;51.334;22.108;2023-04-16T17:17:45;101949.23;;;16.57;55.04
75188;BME280;63762;51.334;22.108;2023-04-16T17:27:52;101958.23;;;16.15;55.83
75188;BME280;63762;51.334;22.108;2023-04-16T17:37:59;101984.73;;;15.80;56.40
75188;BME280;63762;51.334;22.108;2023-04-16T17:48:06;101986.59;;;15.46;57.07
75188;BME280;63762;51.334;22.108;2023-04-16T17:58:13;101998.73;;;15.19;58.45
75188;BME280;63762;51.334;22.108;2023-04-16T18:08:22;102010.13;;;15.00;59.31
75188;BME280;63762;51.334;22.108;2023-04-16T18:18:27;102014.85;;;14.75;59.95
75188;BME280;63762;51.334;22.108;2023-04-16T18:28:34;102018.22;;;14.55;60.48
75188;BME280;63762;51.334;22.108;2023-04-16T18:38:42;102039.52;;;14.36;61.16
75188;BME280;63762;51.334;22.108;2023-04-16T18:48:49;102029.79;;;14.21;61.73
75188;BME280;63762;51.334;22.108;2023-04-16T18:58:56;102041.77;;;14.06;61.94
75188;BME280;63762;51.334;22.108;2023-04-16T19:09:03;102038.02;;;13.83;62.43
75188;BME280;63762;51.334;22.108;2023-04-16T19:19:10;102049.81;;;13.70;62.93
75188;BME280;63762;51.334;22.108;2023-04-16T19:29:17;102065.86;;;13.48;63.37
75188;BME280;63762;51.334;22.108;2023-04-16T19:39:25;102053.52;;;13.18;64.02
75188;BME280;63762;51.334;22.108;2023-04-16T19:49:32;102052.55;;;12.93;64.89
75188;BME280;63762;51.334;22.108;2023-04-16T19:59:40;102041.95;;;12.77;65.05
75188;BME280;63762;51.334;22.108;2023-04-16T20:09:46;102054.63;;;12.63;65.37
75188;BME280;63762;51.334;22.108;2023-04-16T20:19:53;102050.85;;;12.39;66.01
75188;BME280;63762;51.334;22.108;2023-04-16T20:30:00;102047.52;;;12.21;66.66
75188;BME280;63762;51.334;22.108;2023-04-16T20:40:08;102062.77;;;12.08;67.31
75188;BME280;63762;51.334;22.108;2023-04-16T20:50:14;102061.84;;;11.95;67.85
75188;BME280;63762;51.334;22.108;2023-04-16T21:00:22;102042.20;;;11.79;68.35
75188;BME280;63762;51.334;22.108;2023-04-16T21:10:29;102049.14;;;11.69;68.45
75188;BME280;63762;51.334;22.108;2023-04-16T21:20:36;102058.08;;;11.56;68.98
75188;BME280;63762;51.334;22.108;2023-04-16T21:30:43;102047.28;;;11.42;69.36
75188;BME280;63762;51.334;22.108;2023-04-16T21:40:51;102054.29;;;11.30;70.33
75188;BME280;63762;51.334;22.108;2023-04-16T21:50:59;102052.16;;;11.21;71.05
75188;BME280;63762;51.334;22.108;2023-04-16T22:01:09;102047.36;;;11.12;71.39
75188;BME280;63762;51.334;22.108;2023-04-16T22:11:11;102054.65;;;11.10;72.00
75188;BME280;63762;51.334;22.108;2023-04-16T22:21:18;102048.84;;;11.02;72.47
75188;BME280;63762;51.334;22.108;2023-04-16T22:31:26;102060.77;;;10.98;72.75
75188;BME280;63762;51.334;22.108;2023-04-16T22:41:36;102063.83;;;10.92;73.07
75188;BME280;63762;51.334;22.108;2023-04-16T22:51:40;102055.84;;;10.90;73.03
75188;BME280;63762;51.334;22.108;2023-04-16T23:01:47;102060.91;;;10.81;73.43
75188;BME280;63762;51.334;22.108;2023-04-16T23:11:54;102066.09;;;10.70;73.40
75188;BME280;63762;51.334;22.108;2023-04-16T23:22:01;102062.95;;;10.62;73.36
75188;BME280;63762;51.334;22.108;2023-04-16T23:32:08;102065.59;;;10.48;73.48
75188;BME280;63762;51.334;22.108;2023-04-16T23:42:16;102050.94;;;10.38;73.64
75188;BME280;63762;51.334;22.108;2023-04-16T23:52:23;102055.45;;;10.22;74.18
